sensor_id;sensor_type;location;lat;lon;timestamp;P1;durP1;ratioP1;P2;durP2;ratioP2
21800;SDS011;11062;51.164;16.924;2023-05-21T00:01:14;41.33;;;21.30;;
21800;SDS011;11062;51.164;16.924;2023-05-21T00:03:43;36.53;;;21.13;;
21800;SDS011;11062;51.164;16.924;2023-05-21T00:06:13;40.92;;;21.27;;
21800;SDS011;11062;51.164;16.924;2023-05-21T00:08:40;42.42;;;21.52;;
21800;SDS011;11062;51.164;16.924;2023-05-21T00:11:06;39.67;;;20.40;;
21800;SDS011;11062;51.164;16.924;2023-05-21T00:13:32;35.97;;;21.08;;
21800;SDS011;11062;51.164;16.924;2023-05-21T00:15:59;35.45;;;20.35;;
21800;SDS011;11062;51.164;16.924;2023-05-21T00:18:25;43.38;;;20.05;;
21800;SDS011;11062;51.164;16.924;2023-05-21T00:20:50;38.05;;;20.92;;
21800;SDS011;11062;51.164;16.924;2023-05-21T00:23:17;40.33;;;20.63;;
21800;SDS011;11062;51.164;16.924;2023-05-21T00:25:43;34.22;;;18.95;;
21800;SDS011;11062;51.164;16.924;2023-05-21T00:29:18;36.08;;;20.13;;
21800;SDS011;11062;51.164;16.924;2023-05-21T00:31:57;32.88;;;20.13;;
21800;SDS011;11062;51.164;16.924;2023-05-21T00:34:47;42.58;;;20.13;;
21800;SDS011;11062;51.164;16.924;2023-05-21T00:45:29;29.65;;;17.88;;
21800;SDS011;11062;51.164;16.924;2023-05-21T00:49:05;62.45;;;19.85;;
21800;SDS011;11062;51.164;16.924;2023-05-21T00:52:13;83.25;;;21.05;;
21800;SDS011;11062;51.164;16.924;2023-05-21T00:54:45;49.92;;;18.42;;
21800;SDS011;11062;51.164;16.924;2023-05-21T00:57:16;34.92;;;16.50;;
21800;SDS011;11062;51.164;16.924;2023-05-21T00:59:47;34.47;;;16.92;;
21800;SDS011;11062;51.164;16.924;2023-05-21T01:02:15;38.90;;;17.38;;
21800;SDS011;11062;51.164;16.924;2023-05-21T01:04:45;42.70;;;16.88;;
21800;SDS011;11062;51.164;16.924;2023-05-21T01:07:11;44.38;;;17.30;;
21800;SDS011;11062;51.164;16.924;2023-05-21T01:09:39;38.88;;;16.33;;
21800;SDS011;11062;51.164;16.924;2023-05-21T01:12:09;33.58;;;14.80;;
21800;SDS011;11062;51.164;16.924;2023-05-21T01:14:36;49.08;;;16.20;;
21800;SDS011;11062;51.164;16.924;2023-05-21T01:17:04;44.05;;;17.15;;
21800;SDS011;11062;51.164;16.924;2023-05-21T01:19:30;27.95;;;14.13;;
21800;SDS011;11062;51.164;16.924;2023-05-21T01:22:00;70.72;;;18.15;;
21800;SDS011;11062;51.164;16.924;2023-05-21T01:24:32;36.88;;;14.93;;
21800;SDS011;11062;51.164;16.924;2023-05-21T01:26:59;35.15;;;14.70;;
21800;SDS011;11062;51.164;16.924;2023-05-21T01:29:26;38.33;;;15.75;;
21800;SDS011;11062;51.164;16.924;2023-05-21T01:34:34;32.40;;;15.82;;
21800;SDS011;11062;51.164;16.924;2023-05-21T01:39:43;40.85;;;16.15;;
21800;SDS011;11062;51.164;16.924;2023-05-21T01:42:16;31.67;;;14.52;;
21800;SDS011;11062;51.164;16.924;2023-05-21T01:44:44;32.88;;;14.52;;
21800;SDS011;11062;51.164;16.924;2023-05-21T01:47:11;29.95;;;14.10;;
21800;SDS011;11062;51.164;16.924;2023-05-21T01:49:41;39.45;;;14.68;;
21800;SDS011;11062;51.164;16.924;2023-05-21T01:52:07;48.70;;;16.83;;
21800;SDS011;11062;51.164;16.924;2023-05-21T01:54:33;35.38;;;15.07;;
21800;SDS011;11062;51.164;16.924;2023-05-21T01:56:59;38.10;;;14.98;;
21800;SDS011;11062;51.164;16.924;2023-05-21T01:59:25;34.33;;;14.55;;
21800;SDS011;11062;51.164;16.924;2023-05-21T02:01:52;32.10;;;13.82;;
21800;SDS011;11062;51.164;16.924;2023-05-21T02:04:18;40.63;;;14.40;;
21800;SDS011;11062;51.164;16.924;2023-05-21T02:06:43;30.63;;;13.07;;
21800;SDS011;11062;51.164;16.924;2023-05-21T02:09:09;24.38;;;11.95;;
21800;SDS011;11062;51.164;16.924;2023-05-21T02:11:35;30.13;;;12.50;;
21800;SDS011;11062;51.164;16.924;2023-05-21T02:14:02;37.15;;;14.13;;
21800;SDS011;11062;51.164;16.924;2023-05-21T02:16:28;33.58;;;12.25;;
21800;SDS011;11062;51.164;16.924;2023-05-21T02:18:54;40.53;;;13.32;;
21800;SDS011;11062;51.164;16.924;2023-05-21T02:21:21;36.65;;;13.35;;
21800;SDS011;11062;51.164;16.924;2023-05-21T02:23:47;40.85;;;14.50;;
21800;SDS011;11062;51.164;16.924;2023-05-21T02:26:13;42.17;;;14.50;;
21800;SDS011;11062;51.164;16.924;2023-05-21T02:28:39;21.13;;;12.70;;
21800;SDS011;11062;51.164;16.924;2023-05-21T02:31:11;18.85;;;11.32;;
21800;SDS011;11062;51.164;16.924;2023-05-21T02:33:38;24.98;;;12.25;;
21800;SDS011;11062;51.164;16.924;2023-05-21T02:36:05;23.25;;;12.13;;
21800;SDS011;11062;51.164;16.924;2023-05-21T02:38:37;23.70;;;12.73;;
21800;SDS011;11062;51.164;16.924;2023-05-21T02:41:07;38.22;;;15.02;;
21800;SDS011;11062;51.164;16.924;2023-05-21T02:43:34;35.00;;;12.77;;
21800;SDS011;11062;51.164;16.924;2023-05-21T02:46:00;46.25;;;13.98;;
21800;SDS011;11062;51.164;16.924;2023-05-21T02:48:25;44.13;;;14.38;;
21800;SDS011;11062;51.164;16.924;2023-05-21T02:50:51;43.65;;;13.77;;
21800;SDS011;11062;51.164;16.924;2023-05-21T02:53:18;44.90;;;14.45;;
21800;SDS011;11062;51.164;16.924;2023-05-21T02:55:44;50.53;;;15.18;;
21800;SDS011;11062;51.164;16.924;2023-05-21T02:58:10;46.83;;;15.48;;
21800;SDS011;11062;51.164;16.924;2023-05-21T03:00:37;48.05;;;15.07;;
21800;SDS011;11062;51.164;16.924;2023-05-21T03:03:03;41.05;;;14.05;;
21800;SDS011;11062;51.164;16.924;2023-05-21T03:05:29;38.65;;;14.18;;
21800;SDS011;11062;51.164;16.924;2023-05-21T03:07:55;42.65;;;13.70;;
21800;SDS011;11062;51.164;16.924;2023-05-21T03:10:21;34.63;;;13.02;;
21800;SDS011;11062;51.164;16.924;2023-05-21T03:12:50;29.85;;;13.25;;
21800;SDS011;11062;51.164;16.924;2023-05-21T03:15:18;35.88;;;13.88;;
21800;SDS011;11062;51.164;16.924;2023-05-21T03:17:48;36.10;;;13.27;;
21800;SDS011;11062;51.164;16.924;2023-05-21T03:20:17;30.63;;;12.43;;
21800;SDS011;11062;51.164;16.924;2023-05-21T03:22:43;31.20;;;13.35;;
21800;SDS011;11062;51.164;16.924;2023-05-21T03:25:10;27.02;;;12.32;;
21800;SDS011;11062;51.164;16.924;2023-05-21T03:27:39;26.55;;;12.50;;
21800;SDS011;11062;51.164;16.924;2023-05-21T03:30:05;29.95;;;12.70;;
21800;SDS011;11062;51.164;16.924;2023-05-21T03:32:31;33.30;;;12.90;;
21800;SDS011;11062;51.164;16.924;2023-05-21T03:34:58;31.45;;;13.15;;
21800;SDS011;11062;51.164;16.924;2023-05-21T03:37:24;42.95;;;14.50;;
21800;SDS011;11062;51.164;16.924;2023-05-21T03:39:50;43.95;;;13.45;;
21800;SDS011;11062;51.164;16.924;2023-05-21T03:42:16;38.28;;;13.13;;
21800;SDS011;11062;51.164;16.924;2023-05-21T03:44:42;30.65;;;12.38;;
21800;SDS011;11062;51.164;16.924;2023-05-21T03:47:08;53.10;;;15.45;;
21800;SDS011;11062;51.164;16.924;2023-05-21T03:49:34;32.67;;;13.27;;
21800;SDS011;11062;51.164;16.924;2023-05-21T03:52:00;31.58;;;13.32;;
21800;SDS011;11062;51.164;16.924;2023-05-21T03:54:26;39.25;;;13.73;;
21800;SDS011;11062;51.164;16.924;2023-05-21T03:56:52;34.92;;;13.27;;
21800;SDS011;11062;51.164;16.924;2023-05-21T03:59:18;51.80;;;15.18;;
21800;SDS011;11062;51.164;16.924;2023-05-21T04:01:44;41.22;;;13.98;;
21800;SDS011;11062;51.164;16.924;2023-05-21T04:04:10;43.53;;;13.77;;
21800;SDS011;11062;51.164;16.924;2023-05-21T04:06:35;41.80;;;13.75;;
21800;SDS011;11062;51.164;16.924;2023-05-21T04:09:02;28.52;;;12.82;;
21800;SDS011;11062;51.164;16.924;2023-05-21T04:11:29;51.25;;;14.43;;
21800;SDS011;11062;51.164;16.924;2023-05-21T04:13:55;34.03;;;13.02;;
21800;SDS011;11062;51.164;16.924;2023-05-21T04:16:21;34.20;;;13.00;;
21800;SDS011;11062;51.164;16.924;2023-05-21T04:18:48;49.83;;;13.80;;
21800;SDS011;11062;51.164;16.924;2023-05-21T04:21:14;28.08;;;12.18;;
21800;SDS011;11062;51.164;16.924;2023-05-21T04:23:49;39.60;;;13.13;;
21800;SDS011;11062;51.164;16.924;2023-05-21T04:26:17;33.95;;;13.27;;
21800;SDS011;11062;51.164;16.924;2023-05-21T04:28:43;31.02;;;12.65;;
21800;SDS011;11062;51.164;16.924;2023-05-21T04:31:09;30.50;;;11.98;;
21800;SDS011;11062;51.164;16.924;2023-05-21T04:33:37;35.67;;;12.57;;
21800;SDS011;11062;51.164;16.924;2023-05-21T04:36:06;30.45;;;12.93;;
21800;SDS011;11062;51.164;16.924;2023-05-21T04:38:34;32.10;;;13.48;;
21800;SDS011;11062;51.164;16.924;2023-05-21T04:41:01;31.98;;;13.02;;
21800;SDS011;11062;51.164;16.924;2023-05-21T04:43:31;35.45;;;13.70;;
21800;SDS011;11062;51.164;16.924;2023-05-21T04:45:57;35.17;;;13.05;;
21800;SDS011;11062;51.164;16.924;2023-05-21T04:48:23;44.38;;;14.00;;
21800;SDS011;11062;51.164;16.924;2023-05-21T04:50:50;44.78;;;14.90;;
21800;SDS011;11062;51.164;16.924;2023-05-21T04:53:17;46.42;;;14.23;;
21800;SDS011;11062;51.164;16.924;2023-05-21T04:55:43;34.13;;;12.98;;
21800;SDS011;11062;51.164;16.924;2023-05-21T04:58:10;42.03;;;13.98;;
21800;SDS011;11062;51.164;16.924;2023-05-21T05:00:37;36.20;;;13.55;;
21800;SDS011;11062;51.164;16.924;2023-05-21T05:03:03;36.70;;;13.20;;
21800;SDS011;11062;51.164;16.924;2023-05-21T05:05:29;40.50;;;13.15;;
21800;SDS011;11062;51.164;16.924;2023-05-21T05:07:55;25.25;;;11.68;;
21800;SDS011;11062;51.164;16.924;2023-05-21T05:10:22;30.23;;;12.73;;
21800;SDS011;11062;51.164;16.924;2023-05-21T05:12:48;27.67;;;11.77;;
21800;SDS011;11062;51.164;16.924;2023-05-21T05:15:14;39.42;;;12.95;;
21800;SDS011;11062;51.164;16.924;2023-05-21T05:17:40;23.10;;;11.32;;
21800;SDS011;11062;51.164;16.924;2023-05-21T05:20:06;33.42;;;12.32;;
21800;SDS011;11062;51.164;16.924;2023-05-21T05:22:32;22.50;;;11.60;;
21800;SDS011;11062;51.164;16.924;2023-05-21T05:24:58;28.75;;;10.88;;
21800;SDS011;11062;51.164;16.924;2023-05-21T05:27:24;18.20;;;10.77;;
21800;SDS011;11062;51.164;16.924;2023-05-21T05:29:50;26.10;;;10.70;;
21800;SDS011;11062;51.164;16.924;2023-05-21T05:32:16;23.50;;;10.90;;
21800;SDS011;11062;51.164;16.924;2023-05-21T05:34:44;38.35;;;11.25;;
21800;SDS011;11062;51.164;16.924;2023-05-21T05:37:10;27.08;;;10.68;;
21800;SDS011;11062;51.164;16.924;2023-05-21T05:39:36;19.20;;;10.43;;
21800;SDS011;11062;51.164;16.924;2023-05-21T05:42:02;18.13;;;9.65;;
21800;SDS011;11062;51.164;16.924;2023-05-21T05:44:28;22.80;;;9.93;;
21800;SDS011;11062;51.164;16.924;2023-05-21T05:46:57;24.63;;;9.90;;
21800;SDS011;11062;51.164;16.924;2023-05-21T05:49:23;24.23;;;10.27;;
21800;SDS011;11062;51.164;16.924;2023-05-21T05:51:49;33.60;;;10.15;;
21800;SDS011;11062;51.164;16.924;2023-05-21T05:54:15;26.52;;;10.20;;
21800;SDS011;11062;51.164;16.924;2023-05-21T05:56:41;26.38;;;10.35;;
21800;SDS011;11062;51.164;16.924;2023-05-21T05:59:10;33.72;;;10.80;;
21800;SDS011;11062;51.164;16.924;2023-05-21T06:01:35;34.38;;;11.02;;
21800;SDS011;11062;51.164;16.924;2023-05-21T06:04:01;36.63;;;10.70;;
21800;SDS011;11062;51.164;16.924;2023-05-21T06:06:27;34.60;;;10.82;;
21800;SDS011;11062;51.164;16.924;2023-05-21T06:08:53;34.42;;;10.10;;
21800;SDS011;11062;51.164;16.924;2023-05-21T06:11:19;31.35;;;9.63;;
21800;SDS011;11062;51.164;16.924;2023-05-21T06:13:46;40.88;;;11.25;;
21800;SDS011;11062;51.164;16.924;2023-05-21T06:16:12;36.15;;;10.07;;
21800;SDS011;11062;51.164;16.924;2023-05-21T06:18:39;36.88;;;10.25;;
21800;SDS011;11062;51.164;16.924;2023-05-21T06:21:05;27.27;;;9.50;;
21800;SDS011;11062;51.164;16.924;2023-05-21T06:23:31;35.35;;;10.88;;
21800;SDS011;11062;51.164;16.924;2023-05-21T06:26:01;22.85;;;8.73;;
21800;SDS011;11062;51.164;16.924;2023-05-21T06:28:31;30.38;;;9.55;;
21800;SDS011;11062;51.164;16.924;2023-05-21T06:30:57;44.67;;;10.48;;
21800;SDS011;11062;51.164;16.924;2023-05-21T06:33:23;36.65;;;10.55;;
21800;SDS011;11062;51.164;16.924;2023-05-21T06:35:49;23.77;;;9.02;;
21800;SDS011;11062;51.164;16.924;2023-05-21T06:38:15;28.27;;;9.40;;
21800;SDS011;11062;51.164;16.924;2023-05-21T06:40:44;30.08;;;9.40;;
21800;SDS011;11062;51.164;16.924;2023-05-21T06:43:12;30.17;;;9.60;;
21800;SDS011;11062;51.164;16.924;2023-05-21T06:45:38;23.77;;;9.35;;
21800;SDS011;11062;51.164;16.924;2023-05-21T06:48:05;18.30;;;8.27;;
21800;SDS011;11062;51.164;16.924;2023-05-21T06:50:30;41.25;;;10.60;;
21800;SDS011;11062;51.164;16.924;2023-05-21T06:52:56;34.33;;;9.45;;
21800;SDS011;11062;51.164;16.924;2023-05-21T06:55:22;33.63;;;9.50;;
21800;SDS011;11062;51.164;16.924;2023-05-21T06:57:48;48.28;;;11.25;;
21800;SDS011;11062;51.164;16.924;2023-05-21T07:00:14;31.88;;;10.35;;
21800;SDS011;11062;51.164;16.924;2023-05-21T07:02:40;24.25;;;9.68;;
21800;SDS011;11062;51.164;16.924;2023-05-21T07:05:06;36.40;;;10.45;;
21800;SDS011;11062;51.164;16.924;2023-05-21T07:07:32;25.85;;;8.77;;
21800;SDS011;11062;51.164;16.924;2023-05-21T07:09:59;40.17;;;10.02;;
21800;SDS011;11062;51.164;16.924;2023-05-21T07:12:25;36.25;;;9.25;;
21800;SDS011;11062;51.164;16.924;2023-05-21T07:14:51;38.13;;;9.95;;
21800;SDS011;11062;51.164;16.924;2023-05-21T07:17:17;37.13;;;10.68;;
21800;SDS011;11062;51.164;16.924;2023-05-21T07:19:46;32.95;;;9.43;;
21800;SDS011;11062;51.164;16.924;2023-05-21T07:22:12;43.28;;;10.43;;
21800;SDS011;11062;51.164;16.924;2023-05-21T07:24:38;39.00;;;10.52;;
21800;SDS011;11062;51.164;16.924;2023-05-21T07:27:04;36.65;;;9.95;;
21800;SDS011;11062;51.164;16.924;2023-05-21T07:29:32;46.53;;;11.48;;
21800;SDS011;11062;51.164;16.924;2023-05-21T07:31:58;39.38;;;10.02;;
21800;SDS011;11062;51.164;16.924;2023-05-21T07:34:24;42.70;;;10.65;;
21800;SDS011;11062;51.164;16.924;2023-05-21T07:36:51;36.88;;;9.80;;
21800;SDS011;11062;51.164;16.924;2023-05-21T07:39:18;73.78;;;12.68;;
21800;SDS011;11062;51.164;16.924;2023-05-21T07:41:46;31.73;;;9.18;;
21800;SDS011;11062;51.164;16.924;2023-05-21T07:44:12;12.45;;;7.38;;
21800;SDS011;11062;51.164;16.924;2023-05-21T07:46:38;21.38;;;8.13;;
21800;SDS011;11062;51.164;16.924;2023-05-21T07:49:07;15.82;;;7.47;;
21800;SDS011;11062;51.164;16.924;2023-05-21T07:51:40;21.80;;;8.43;;
21800;SDS011;11062;51.164;16.924;2023-05-21T07:54:18;22.60;;;7.72;;
21800;SDS011;11062;51.164;16.924;2023-05-21T07:56:44;24.77;;;8.10;;
21800;SDS011;11062;51.164;16.924;2023-05-21T07:59:10;26.70;;;8.80;;
21800;SDS011;11062;51.164;16.924;2023-05-21T08:01:38;20.05;;;8.32;;
21800;SDS011;11062;51.164;16.924;2023-05-21T08:04:05;12.85;;;6.95;;
21800;SDS011;11062;51.164;16.924;2023-05-21T08:06:34;22.67;;;8.05;;
21800;SDS011;11062;51.164;16.924;2023-05-21T08:09:06;15.15;;;7.82;;
21800;SDS011;11062;51.164;16.924;2023-05-21T08:11:32;16.85;;;7.93;;
21800;SDS011;11062;51.164;16.924;2023-05-21T08:14:01;11.30;;;7.05;;
21800;SDS011;11062;51.164;16.924;2023-05-21T08:16:30;20.73;;;7.85;;
21800;SDS011;11062;51.164;16.924;2023-05-21T08:18:59;18.23;;;7.35;;
21800;SDS011;11062;51.164;16.924;2023-05-21T08:21:47;36.83;;;8.93;;
21800;SDS011;11062;51.164;16.924;2023-05-21T08:24:22;11.00;;;6.63;;
21800;SDS011;11062;51.164;16.924;2023-05-21T08:26:50;13.73;;;6.85;;
21800;SDS011;11062;51.164;16.924;2023-05-21T08:29:16;20.52;;;7.45;;
21800;SDS011;11062;51.164;16.924;2023-05-21T08:31:42;34.83;;;8.88;;
21800;SDS011;11062;51.164;16.924;2023-05-21T08:34:08;23.15;;;7.40;;
21800;SDS011;11062;51.164;16.924;2023-05-21T08:36:34;15.90;;;6.82;;
21800;SDS011;11062;51.164;16.924;2023-05-21T08:39:00;21.75;;;6.78;;
21800;SDS011;11062;51.164;16.924;2023-05-21T08:41:32;16.02;;;6.45;;
21800;SDS011;11062;51.164;16.924;2023-05-21T08:44:00;12.27;;;6.25;;
21800;SDS011;11062;51.164;16.924;2023-05-21T08:46:33;11.70;;;6.38;;
21800;SDS011;11062;51.164;16.924;2023-05-21T08:49:00;13.70;;;6.80;;
21800;SDS011;11062;51.164;16.924;2023-05-21T08:51:28;16.95;;;6.82;;
21800;SDS011;11062;51.164;16.924;2023-05-21T08:53:58;13.02;;;6.60;;
21800;SDS011;11062;51.164;16.924;2023-05-21T08:56:25;15.90;;;7.15;;
21800;SDS011;11062;51.164;16.924;2023-05-21T08:58:54;17.42;;;6.80;;
21800;SDS011;11062;51.164;16.924;2023-05-21T09:01:24;13.68;;;6.43;;
21800;SDS011;11062;51.164;16.924;2023-05-21T09:03:51;9.68;;;6.32;;
21800;SDS011;11062;51.164;16.924;2023-05-21T09:06:20;28.80;;;7.07;;
21800;SDS011;11062;51.164;16.924;2023-05-21T09:08:48;11.35;;;6.22;;
21800;SDS011;11062;51.164;16.924;2023-05-21T09:11:27;17.05;;;6.55;;
21800;SDS011;11062;51.164;16.924;2023-05-21T09:13:53;10.75;;;5.57;;
21800;SDS011;11062;51.164;16.924;2023-05-21T09:16:20;14.70;;;6.07;;
21800;SDS011;11062;51.164;16.924;2023-05-21T09:18:49;10.95;;;6.03;;
21800;SDS011;11062;51.164;16.924;2023-05-21T09:21:22;14.93;;;6.43;;
21800;SDS011;11062;51.164;16.924;2023-05-21T09:23:55;12.70;;;5.70;;
21800;SDS011;11062;51.164;16.924;2023-05-21T09:26:24;36.78;;;8.77;;
21800;SDS011;11062;51.164;16.924;2023-05-21T09:28:51;12.15;;;5.22;;
21800;SDS011;11062;51.164;16.924;2023-05-21T09:31:24;23.17;;;6.50;;
21800;SDS011;11062;51.164;16.924;2023-05-21T09:33:53;23.70;;;6.90;;
21800;SDS011;11062;51.164;16.924;2023-05-21T09:36:19;16.17;;;5.53;;
21800;SDS011;11062;51.164;16.924;2023-05-21T09:38:54;20.95;;;5.38;;
21800;SDS011;11062;51.164;16.924;2023-05-21T09:41:31;14.35;;;5.28;;
21800;SDS011;11062;51.164;16.924;2023-05-21T09:44:00;12.95;;;5.43;;
21800;SDS011;11062;51.164;16.924;2023-05-21T09:46:38;26.25;;;6.47;;
21800;SDS011;11062;51.164;16.924;2023-05-21T09:49:05;23.02;;;6.20;;
21800;SDS011;11062;51.164;16.924;2023-05-21T09:51:31;20.35;;;5.35;;
21800;SDS011;11062;51.164;16.924;2023-05-21T09:53:57;23.60;;;6.57;;
21800;SDS011;11062;51.164;16.924;2023-05-21T09:56:24;17.85;;;5.85;;
21800;SDS011;11062;51.164;16.924;2023-05-21T09:58:58;16.63;;;6.00;;
21800;SDS011;11062;51.164;16.924;2023-05-21T10:01:29;40.55;;;8.32;;
21800;SDS011;11062;51.164;16.924;2023-05-21T10:03:58;37.60;;;8.07;;
21800;SDS011;11062;51.164;16.924;2023-05-21T10:06:27;23.88;;;6.40;;
21800;SDS011;11062;51.164;16.924;2023-05-21T10:08:56;23.08;;;6.28;;
21800;SDS011;11062;51.164;16.924;2023-05-21T10:11:29;33.55;;;7.22;;
21800;SDS011;11062;51.164;16.924;2023-05-21T10:14:15;36.42;;;5.88;;
21800;SDS011;11062;51.164;16.924;2023-05-21T10:16:49;24.65;;;5.85;;
21800;SDS011;11062;51.164;16.924;2023-05-21T10:19:24;29.83;;;6.10;;
21800;SDS011;11062;51.164;16.924;2023-05-21T10:21:50;14.75;;;5.22;;
21800;SDS011;11062;51.164;16.924;2023-05-21T10:24:18;14.27;;;4.78;;
21800;SDS011;11062;51.164;16.924;2023-05-21T10:26:45;18.35;;;5.30;;
21800;SDS011;11062;51.164;16.924;2023-05-21T10:29:12;20.27;;;5.03;;
21800;SDS011;11062;51.164;16.924;2023-05-21T10:31:39;45.97;;;7.55;;
21800;SDS011;11062;51.164;16.924;2023-05-21T10:34:10;12.82;;;4.97;;
21800;SDS011;11062;51.164;16.924;2023-05-21T10:36:41;57.85;;;9.20;;
21800;SDS011;11062;51.164;16.924;2023-05-21T10:39:08;32.72;;;7.15;;
21800;SDS011;11062;51.164;16.924;2023-05-21T10:41:44;21.33;;;5.32;;
21800;SDS011;11062;51.164;16.924;2023-05-21T10:44:41;21.60;;;5.47;;
21800;SDS011;11062;51.164;16.924;2023-05-21T10:47:25;13.18;;;4.47;;
21800;SDS011;11062;51.164;16.924;2023-05-21T10:53:04;16.63;;;4.57;;
21800;SDS011;11062;51.164;16.924;2023-05-21T11:00:56;21.52;;;5.32;;
21800;SDS011;11062;51.164;16.924;2023-05-21T11:03:30;12.82;;;4.70;;
21800;SDS011;11062;51.164;16.924;2023-05-21T11:06:01;21.42;;;5.13;;
21800;SDS011;11062;51.164;16.924;2023-05-21T11:08:29;24.38;;;5.75;;
21800;SDS011;11062;51.164;16.924;2023-05-21T11:10:58;16.65;;;4.95;;
21800;SDS011;11062;51.164;16.924;2023-05-21T11:13:28;21.27;;;5.43;;
21800;SDS011;11062;51.164;16.924;2023-05-21T11:16:13;17.63;;;5.57;;
21800;SDS011;11062;51.164;16.924;2023-05-21T11:21:07;12.18;;;4.00;;
21800;SDS011;11062;51.164;16.924;2023-05-21T11:23:51;20.30;;;4.93;;
21800;SDS011;11062;51.164;16.924;2023-05-21T11:26:20;17.08;;;4.72;;
21800;SDS011;11062;51.164;16.924;2023-05-21T11:31:32;15.15;;;4.45;;
21800;SDS011;11062;51.164;16.924;2023-05-21T11:34:18;18.30;;;5.07;;
21800;SDS011;11062;51.164;16.924;2023-05-21T11:39:53;15.00;;;4.38;;
21800;SDS011;11062;51.164;16.924;2023-05-21T11:42:28;9.82;;;3.47;;
21800;SDS011;11062;51.164;16.924;2023-05-21T11:44:56;16.27;;;4.57;;
21800;SDS011;11062;51.164;16.924;2023-05-21T11:47:25;37.58;;;5.93;;
21800;SDS011;11062;51.164;16.924;2023-05-21T11:49:53;21.50;;;5.07;;
21800;SDS011;11062;51.164;16.924;2023-05-21T11:52:20;19.55;;;5.30;;
21800;SDS011;11062;51.164;16.924;2023-05-21T11:54:50;26.10;;;6.00;;
21800;SDS011;11062;51.164;16.924;2023-05-21T11:57:21;20.20;;;4.93;;
21800;SDS011;11062;51.164;16.924;2023-05-21T11:59:54;17.85;;;5.40;;
21800;SDS011;11062;51.164;16.924;2023-05-21T12:02:23;17.40;;;4.93;;
21800;SDS011;11062;51.164;16.924;2023-05-21T12:04:52;18.27;;;5.43;;
21800;SDS011;11062;51.164;16.924;2023-05-21T12:07:21;10.23;;;4.28;;
21800;SDS011;11062;51.164;16.924;2023-05-21T12:09:50;10.27;;;4.28;;
21800;SDS011;11062;51.164;16.924;2023-05-21T12:12:19;11.20;;;4.53;;
21800;SDS011;11062;51.164;16.924;2023-05-21T12:14:49;6.80;;;4.00;;
21800;SDS011;11062;51.164;16.924;2023-05-21T12:17:20;12.15;;;3.97;;
21800;SDS011;11062;51.164;16.924;2023-05-21T12:19:51;9.82;;;4.00;;
21800;SDS011;11062;51.164;16.924;2023-05-21T12:22:18;13.30;;;4.38;;
21800;SDS011;11062;51.164;16.924;2023-05-21T12:24:45;19.08;;;5.82;;
21800;SDS011;11062;51.164;16.924;2023-05-21T12:27:12;15.05;;;4.88;;
21800;SDS011;11062;51.164;16.924;2023-05-21T12:29:44;15.60;;;5.82;;
21800;SDS011;11062;51.164;16.924;2023-05-21T12:32:13;16.80;;;4.97;;
21800;SDS011;11062;51.164;16.924;2023-05-21T12:34:51;10.93;;;4.70;;
21800;SDS011;11062;51.164;16.924;2023-05-21T12:37:25;13.88;;;5.07;;
21800;SDS011;11062;51.164;16.924;2023-05-21T12:40:00;17.02;;;5.55;;
21800;SDS011;11062;51.164;16.924;2023-05-21T12:42:33;11.45;;;4.70;;
21800;SDS011;11062;51.164;16.924;2023-05-21T12:45:05;11.25;;;4.25;;
21800;SDS011;11062;51.164;16.924;2023-05-21T12:47:34;12.75;;;5.00;;
21800;SDS011;11062;51.164;16.924;2023-05-21T12:50:07;12.60;;;4.00;;
21800;SDS011;11062;51.164;16.924;2023-05-21T12:52:36;21.98;;;4.78;;
21800;SDS011;11062;51.164;16.924;2023-05-21T12:55:04;9.88;;;4.43;;
21800;SDS011;11062;51.164;16.924;2023-05-21T12:57:39;7.38;;;3.80;;
21800;SDS011;11062;51.164;16.924;2023-05-21T13:00:08;12.00;;;4.50;;
21800;SDS011;11062;51.164;16.924;2023-05-21T13:02:38;10.73;;;4.10;;
21800;SDS011;11062;51.164;16.924;2023-05-21T13:05:06;7.15;;;4.05;;
21800;SDS011;11062;51.164;16.924;2023-05-21T13:07:37;12.02;;;3.85;;
21800;SDS011;11062;51.164;16.924;2023-05-21T13:12:36;7.50;;;4.18;;
21800;SDS011;11062;51.164;16.924;2023-05-21T13:15:02;8.32;;;3.83;;
21800;SDS011;11062;51.164;16.924;2023-05-21T13:17:32;7.72;;;4.25;;
21800;SDS011;11062;51.164;16.924;2023-05-21T13:20:05;13.73;;;4.85;;
21800;SDS011;11062;51.164;16.924;2023-05-21T13:22:39;10.48;;;4.97;;
21800;SDS011;11062;51.164;16.924;2023-05-21T13:25:13;10.40;;;4.45;;
21800;SDS011;11062;51.164;16.924;2023-05-21T13:27:47;12.05;;;5.43;;
21800;SDS011;11062;51.164;16.924;2023-05-21T13:30:14;8.73;;;3.85;;
21800;SDS011;11062;51.164;16.924;2023-05-21T13:32:44;7.30;;;3.95;;
21800;SDS011;11062;51.164;16.924;2023-05-21T13:35:13;17.10;;;4.70;;
21800;SDS011;11062;51.164;16.924;2023-05-21T13:37:40;7.35;;;3.95;;
21800;SDS011;11062;51.164;16.924;2023-05-21T13:40:07;6.82;;;3.67;;
21800;SDS011;11062;51.164;16.924;2023-05-21T13:42:38;8.63;;;4.20;;
21800;SDS011;11062;51.164;16.924;2023-05-21T13:45:08;8.32;;;3.80;;
21800;SDS011;11062;51.164;16.924;2023-05-21T13:47:36;4.82;;;3.70;;
21800;SDS011;11062;51.164;16.924;2023-05-21T13:50:02;7.82;;;3.80;;
21800;SDS011;11062;51.164;16.924;2023-05-21T13:52:28;5.05;;;3.60;;
21800;SDS011;11062;51.164;16.924;2023-05-21T13:54:55;7.53;;;3.83;;
21800;SDS011;11062;51.164;16.924;2023-05-21T13:57:24;7.03;;;4.15;;
21800;SDS011;11062;51.164;16.924;2023-05-21T13:59:51;7.68;;;3.78;;
21800;SDS011;11062;51.164;16.924;2023-05-21T14:02:20;10.70;;;4.03;;
21800;SDS011;11062;51.164;16.924;2023-05-21T14:04:46;10.95;;;4.57;;
21800;SDS011;11062;51.164;16.924;2023-05-21T14:07:12;7.47;;;4.45;;
21800;SDS011;11062;51.164;16.924;2023-05-21T14:09:44;7.20;;;4.25;;
21800;SDS011;11062;51.164;16.924;2023-05-21T14:12:11;7.20;;;4.00;;
21800;SDS011;11062;51.164;16.924;2023-05-21T14:14:37;6.57;;;3.88;;
21800;SDS011;11062;51.164;16.924;2023-05-21T14:17:03;9.27;;;4.22;;
21800;SDS011;11062;51.164;16.924;2023-05-21T14:19:30;6.30;;;4.07;;
21800;SDS011;11062;51.164;16.924;2023-05-21T14:21:58;17.23;;;5.97;;
21800;SDS011;11062;51.164;16.924;2023-05-21T14:24:27;7.82;;;4.07;;
21800;SDS011;11062;51.164;16.924;2023-05-21T14:26:52;5.97;;;3.90;;
21800;SDS011;11062;51.164;16.924;2023-05-21T14:29:18;12.07;;;3.78;;
21800;SDS011;11062;51.164;16.924;2023-05-21T14:31:44;7.80;;;3.42;;
21800;SDS011;11062;51.164;16.924;2023-05-21T14:34:13;8.18;;;4.25;;
21800;SDS011;11062;51.164;16.924;2023-05-21T14:36:42;9.75;;;4.43;;
21800;SDS011;11062;51.164;16.924;2023-05-21T14:39:08;14.23;;;4.80;;
21800;SDS011;11062;51.164;16.924;2023-05-21T14:41:36;15.45;;;4.10;;
21800;SDS011;11062;51.164;16.924;2023-05-21T14:44:06;17.15;;;4.97;;
21800;SDS011;11062;51.164;16.924;2023-05-21T14:46:32;10.68;;;4.32;;
21800;SDS011;11062;51.164;16.924;2023-05-21T14:48:58;5.75;;;3.67;;
21800;SDS011;11062;51.164;16.924;2023-05-21T14:51:27;10.90;;;3.83;;
21800;SDS011;11062;51.164;16.924;2023-05-21T14:53:53;9.45;;;3.67;;
21800;SDS011;11062;51.164;16.924;2023-05-21T14:56:25;9.70;;;4.10;;
21800;SDS011;11062;51.164;16.924;2023-05-21T14:58:55;5.80;;;3.85;;